Sumpter Township, Michigan
Current Conditions -  °F | °C
As of 12:53 AM on Saturday 29 Nov 2014 (Local Time) from KYIP Reporting Station
Overcast Overcast  
Wind Chill: 25°   Ceiling: 4200
Heat Index: 33°   Visibility: 10mi
Dew Point: 23°   Wind: 9mph
Humidity: 66%   Direction: 140°SE
Pressure: 30.06"   Gusts: NA
Location:  42.1781°N, 83.4854°W
Report Text: KYIP 290553Z 14008KT 10SM BKN042 OVC050 01/M05 A3006 RMK AO2 SLP183 T00061050 10006 21022 58011
Loading
Personal Weather Stations






























Interactive Weather Map New forecast layout! Learn more

10-Day Weather Forecast

Advertisements
Track Severe Weather on mobile